Portada
METAR-TAF:

METAR-TAF

Aeroports :

Bucarest, Romania

latitud: 44-33N, longitud: 026-06E, altitud: 95 m

Observació

L'informe es va fer fa 21 minuts, a les 07:30 UTC
Vent 7 kt del Oest
Temperatura 7°C
Humitat 57%
Pressió 1002 hPa
Visibilitat 10 km o més
sense núvols per sota de 1500 mi sense presència de cumulonimbus.

METAR: LROP 260730Z 27007KT CAVOK 07/M01 Q1002 NOSIG

Hora: 09:51 (07:51 UTC)

Pronòstic

L'informe es va fer fa 2 hores i 51 minuts, a les 05:00 UTC
Pronòstic vàlid del 26 a les 06 UTC al 27 a les 06 UTC
Vent 12 kt del Oest
Visibilitat 10 km o més
sense núvols per sota de 1500 mi sense presència de cumulonimbus.
Evolucionant progressivament
l' 26 a les 14 UTC al 26 a les 16 UTC
Vent 4 kt amb direcció variable
Evolucionant progressivament
l' 26 a les 21 UTC al 26 a les 23 UTC
Vent 10 kt del Oest/Sud-Oest

TAF: LROP 260500Z 2606/2706 26012KT CAVOK BECMG 2614/2616 VRB04KT BECMG 2621/2623 25010KT

Observacions i pronòstics meteorològics de més de 4000 aeroports (METAR i TAF).

Les estacions disponibles són els punts grocs i vermells al mapa.

Posi el ratolí al punt desitjat per veure el nom de l'estació.

Feu clic per veure les observacions i els pronòstics meteorològics.

Per canviar el mapa: feu clic els botons verds amb una creu de color negre per apropar; al botó verd amb un guió per allunyar la imatge; o en les fletxes verdes per a mapes adjacents.


METAR-TAF: